Thursday, March 23, 2017, 12:24 AM EDT

KLNS, Lancaster Airport

Location: Lititz, PA, United States Lat: 40.117
Local Time: 12:24 AM EDT ( 4:24 GMT) Lon: -76.3
Time Zone: US/Eastern Elev: 403 ft

Show me the last for .
Show Decoded

2017-03-22 23:53 METAR KLNS 230353Z AUTO 01008KT 10SM CLR M03/M16 A3048 RMK AO2 SLP327 T10281156
                 =
2017-03-22 22:53 METAR KLNS 230253Z 01009KT 10SM CLR M02/M16 A3047 RMK AO2 SLP321 T10221161 51025
                 =
2017-03-22 21:53 METAR KLNS 230153Z 36007KT 10SM CLR M02/M16 A3045 RMK AO2 SLP315 T10171156 =
2017-03-22 20:53 METAR KLNS 230053Z 36007KT 10SM CLR M01/M16 A3042 RMK AO2 SLP304 T10061161 =
2017-03-22 19:53 METAR KLNS 222353Z 36011KT 10SM CLR 01/M16 A3039 RMK AO2 SLP295 T00061156 10044
                 20000 53033 =
2017-03-22 18:53 METAR KLNS 222253Z 35012KT 10SM CLR 02/M16 A3036 RMK AO2 SLP284 T00171156 =
2017-03-22 17:53 METAR KLNS 222153Z 35013KT 10SM CLR 03/M16 A3032 RMK AO2 SLP270 T00331156 =
2017-03-22 16:53 METAR KLNS 222053Z 36013G18KT 10SM CLR 04/M14 A3029 RMK AO2 PK WND 35026/2006
                 SLP260 T00441139 53011 =
2017-03-22 15:53 METAR KLNS 221953Z 33019G27KT 10SM CLR 04/M14 A3028 RMK AO2 PK WND 36028/1917
                 SLP256 T00441139 =
2017-03-22 14:53 METAR KLNS 221853Z 33016G25KT 10SM CLR 04/M13 A3026 RMK AO2 PK WND 32027/1812
                 SLP249 T00391133 =
2017-03-22 13:53 METAR KLNS 221753Z 33015G23KT 10SM CLR 04/M12 A3026 RMK AO2 PK WND 36030/1716
                 SLP249 T00441122 10044 20022 51018 =
2017-03-22 12:53 METAR KLNS 221653Z 34018G25KT 10SM CLR 04/M12 A3025 RMK AO2 SLP246 T00441117 =
2017-03-22 11:53 METAR KLNS 221553Z 34019G28KT 10SM CLR 04/M12 A3023 RMK AO2 PK WND 35028/1544
                 SLP239 T00391117 =
2017-03-22 10:53 METAR KLNS 221453Z 35019G31KT 10SM CLR 03/M11 A3021 RMK AO2 PK WND 36031/1453
                 SLP231 T00331111 51039 =
2017-03-22 09:53 METAR KLNS 221353Z 32022G32KT 10SM CLR 03/M11 A3017 RMK AO2 PK WND 36033/1338
                 SLP218 T00281106 =
2017-03-22 08:53 METAR KLNS 221253Z 34020G30KT 10SM BKN040 02/M06 A3013 RMK AO2 PK WND 36032/1225
                 SLP204 T00221056 =
2017-03-22 07:53 METAR KLNS 221153Z 33018G24KT 10SM SCT050 03/M07 A3009 RMK AO2 SLP191 T00331072
                 10083 20028 51040 =
2017-03-22 06:53 METAR KLNS 221053Z 32012G29KT 10SM BKN050 03/M06 A3006 RMK AO2 PK WND 32030/1042
                 SLP181 T00331061 =
2017-03-22 05:53 METAR KLNS 220953Z 32011KT 10SM SCT049 04/M03 A3001 RMK AO2 SLP164 T00441033 =
2017-03-22 04:53 METAR KLNS 220853Z AUTO 33013G20KT 10SM CLR 06/M02 A2997 RMK AO2 SLP150
                 T00611022 53021 =
2017-03-22 03:53 METAR KLNS 220753Z AUTO 31007KT 10SM BKN080 06/M03 A2993 RMK AO2 SLP136
                 T00611028 =
2017-03-22 02:53 METAR KLNS 220653Z AUTO 32007KT 10SM CLR 06/M02 A2991 RMK AO2 SLP130 T00611022 =
2017-03-22 01:53 METAR KLNS 220553Z AUTO 29004KT 10SM SCT090 08/M01 A2991 RMK AO2 SLP128
                 T00831011 10111 20061 51006 =
2017-03-22 00:53 METAR KLNS 220453Z AUTO 31006KT 10SM BKN080 07/01 A2991 RMK AO2 SLP128 T00720011
                 401500044 =

Support USWX by starting your Amazon purchase here.